sensor_id;sensor_type;location;lat;lon;timestamp;pressure;altitude;pressure_sealevel;temperature;humidity
43989;BME280;54163;51.386;7.178;2022-07-10T00:01:30;101622.00;;;17.97;58.68
43989;BME280;54163;51.386;7.178;2022-07-10T00:03:57;101613.38;;;18.03;58.78
43989;BME280;54163;51.386;7.178;2022-07-10T00:06:24;101608.31;;;18.09;58.24
43989;BME280;54163;51.386;7.178;2022-07-10T00:08:51;101611.19;;;18.08;58.17
43989;BME280;54163;51.386;7.178;2022-07-10T00:11:20;101614.56;;;17.88;58.75
43989;BME280;54163;51.386;7.178;2022-07-10T00:13:47;101619.00;;;17.78;59.25
43989;BME280;54163;51.386;7.178;2022-07-10T00:16:14;101622.69;;;17.77;59.41
43989;BME280;54163;51.386;7.178;2022-07-10T00:18:42;101622.84;;;17.86;58.95
43989;BME280;54163;51.386;7.178;2022-07-10T00:21:09;101626.75;;;17.82;59.27
43989;BME280;54163;51.386;7.178;2022-07-10T00:23:37;101622.22;;;17.83;59.37
43989;BME280;54163;51.386;7.178;2022-07-10T00:26:04;101630.38;;;17.94;59.12
43989;BME280;54163;51.386;7.178;2022-07-10T00:28:31;101620.31;;;18.07;58.45
43989;BME280;54163;51.386;7.178;2022-07-10T00:30:58;101620.06;;;18.10;58.05
43989;BME280;54163;51.386;7.178;2022-07-10T00:33:25;101621.81;;;18.11;58.09
43989;BME280;54163;51.386;7.178;2022-07-10T00:35:54;101628.22;;;18.10;58.21
43989;BME280;54163;51.386;7.178;2022-07-10T00:38:21;101619.19;;;18.09;58.21
43989;BME280;54163;51.386;7.178;2022-07-10T00:40:48;101621.41;;;18.15;58.04
43989;BME280;54163;51.386;7.178;2022-07-10T00:43:15;101615.25;;;18.13;58.08
43989;BME280;54163;51.386;7.178;2022-07-10T00:45:43;101615.50;;;18.10;58.53
43989;BME280;54163;51.386;7.178;2022-07-10T00:48:10;101613.13;;;18.06;58.73
43989;BME280;54163;51.386;7.178;2022-07-10T00:50:37;101604.38;;;18.02;58.99
43989;BME280;54163;51.386;7.178;2022-07-10T00:53:06;101591.88;;;18.00;58.75
43989;BME280;54163;51.386;7.178;2022-07-10T00:55:35;101598.97;;;18.02;58.76
43989;BME280;54163;51.386;7.178;2022-07-10T00:58:05;101596.25;;;18.02;59.03
43989;BME280;54163;51.386;7.178;2022-07-10T01:00:34;101593.53;;;18.02;58.97
43989;BME280;54163;51.386;7.178;2022-07-10T01:03:03;101585.94;;;17.84;59.84
43989;BME280;54163;51.386;7.178;2022-07-10T01:05:31;101602.88;;;17.98;59.24
43989;BME280;54163;51.386;7.178;2022-07-10T01:07:58;101598.81;;;18.04;59.08
43989;BME280;54163;51.386;7.178;2022-07-10T01:10:26;101598.09;;;18.02;59.11
43989;BME280;54163;51.386;7.178;2022-07-10T01:12:53;101593.28;;;18.16;58.71
43989;BME280;54163;51.386;7.178;2022-07-10T01:15:21;101587.75;;;18.18;58.61
43989;BME280;54163;51.386;7.178;2022-07-10T01:17:48;101584.31;;;18.27;58.36
43989;BME280;54163;51.386;7.178;2022-07-10T01:20:15;101587.66;;;18.31;58.23
43989;BME280;54163;51.386;7.178;2022-07-10T01:22:43;101584.31;;;18.27;58.50
43989;BME280;54163;51.386;7.178;2022-07-10T01:25:10;101579.84;;;18.26;58.46
43989;BME280;54163;51.386;7.178;2022-07-10T01:27:38;101571.56;;;18.16;58.81
43989;BME280;54163;51.386;7.178;2022-07-10T01:30:05;101584.03;;;18.19;58.91
43989;BME280;54163;51.386;7.178;2022-07-10T01:32:36;101583.06;;;18.20;58.79
43989;BME280;54163;51.386;7.178;2022-07-10T01:35:04;101567.88;;;18.17;58.82
43989;BME280;54163;51.386;7.178;2022-07-10T01:37:32;101562.22;;;18.20;58.81
43989;BME280;54163;51.386;7.178;2022-07-10T01:40:00;101560.59;;;18.18;59.08
43989;BME280;54163;51.386;7.178;2022-07-10T01:42:27;101558.38;;;18.23;58.96
43989;BME280;54163;51.386;7.178;2022-07-10T01:44:53;101559.00;;;18.26;59.01
43989;BME280;54163;51.386;7.178;2022-07-10T01:47:21;101562.59;;;18.27;59.05
43989;BME280;54163;51.386;7.178;2022-07-10T01:49:50;101557.88;;;18.29;59.15
43989;BME280;54163;51.386;7.178;2022-07-10T01:52:18;101559.63;;;18.30;59.02
43989;BME280;54163;51.386;7.178;2022-07-10T01:54:45;101562.34;;;18.30;59.05
43989;BME280;54163;51.386;7.178;2022-07-10T01:57:14;101559.25;;;18.35;58.85
43989;BME280;54163;51.386;7.178;2022-07-10T01:59:41;101562.09;;;18.33;58.71
43989;BME280;54163;51.386;7.178;2022-07-10T02:02:08;101557.63;;;18.32;58.85
43989;BME280;54163;51.386;7.178;2022-07-10T02:04:36;101549.00;;;18.27;59.10
43989;BME280;54163;51.386;7.178;2022-07-10T02:07:08;101549.25;;;18.24;59.01
43989;BME280;54163;51.386;7.178;2022-07-10T02:09:35;101549.88;;;18.27;58.95
43989;BME280;54163;51.386;7.178;2022-07-10T02:12:03;101545.91;;;18.32;58.69
43989;BME280;54163;51.386;7.178;2022-07-10T02:14:32;101541.59;;;18.29;58.59
43989;BME280;54163;51.386;7.178;2022-07-10T02:16:59;101543.69;;;18.25;58.75
43989;BME280;54163;51.386;7.178;2022-07-10T02:19:26;101539.13;;;18.26;58.80
43989;BME280;54163;51.386;7.178;2022-07-10T02:21:53;101543.06;;;18.22;58.84
43989;BME280;54163;51.386;7.178;2022-07-10T02:24:20;101545.53;;;18.14;59.15
43989;BME280;54163;51.386;7.178;2022-07-10T02:26:48;101543.31;;;18.19;58.92
43989;BME280;54163;51.386;7.178;2022-07-10T02:29:15;101542.09;;;18.12;59.20
43989;BME280;54163;51.386;7.178;2022-07-10T02:31:44;101532.06;;;18.12;59.21
43989;BME280;54163;51.386;7.178;2022-07-10T02:34:11;101532.53;;;18.06;59.36
43989;BME280;54163;51.386;7.178;2022-07-10T02:36:39;101533.66;;;18.04;59.38
43989;BME280;54163;51.386;7.178;2022-07-10T02:39:07;101540.94;;;18.03;59.48
43989;BME280;54163;51.386;7.178;2022-07-10T02:41:34;101527.34;;;18.03;59.47
43989;BME280;54163;51.386;7.178;2022-07-10T02:44:01;101545.50;;;18.03;59.48
43989;BME280;54163;51.386;7.178;2022-07-10T02:46:29;101530.47;;;18.10;59.22
43989;BME280;54163;51.386;7.178;2022-07-10T02:48:57;101534.91;;;18.11;59.37
43989;BME280;54163;51.386;7.178;2022-07-10T02:51:24;101530.47;;;18.10;59.26
43989;BME280;54163;51.386;7.178;2022-07-10T02:53:51;101531.72;;;18.17;58.96
43989;BME280;54163;51.386;7.178;2022-07-10T02:56:18;101532.69;;;18.05;59.32
43989;BME280;54163;51.386;7.178;2022-07-10T02:58:46;101530.94;;;17.93;59.74
43989;BME280;54163;51.386;7.178;2022-07-10T03:01:13;101525.22;;;17.85;60.05
43989;BME280;54163;51.386;7.178;2022-07-10T03:03:40;101527.69;;;17.88;59.96
43989;BME280;54163;51.386;7.178;2022-07-10T03:06:09;101528.56;;;17.88;60.18
43989;BME280;54163;51.386;7.178;2022-07-10T03:08:36;101535.75;;;17.89;60.09
43989;BME280;54163;51.386;7.178;2022-07-10T03:11:03;101535.38;;;17.94;59.97
43989;BME280;54163;51.386;7.178;2022-07-10T03:13:30;101531.81;;;17.93;60.13
43989;BME280;54163;51.386;7.178;2022-07-10T03:15:57;101529.84;;;17.95;59.91
43989;BME280;54163;51.386;7.178;2022-07-10T03:18:25;101530.56;;;17.97;59.88
43989;BME280;54163;51.386;7.178;2022-07-10T03:20:51;101528.94;;;17.84;60.32
43989;BME280;54163;51.386;7.178;2022-07-10T03:23:20;101526.72;;;17.78;60.68
43989;BME280;54163;51.386;7.178;2022-07-10T03:25:47;101524.75;;;17.91;60.48
43989;BME280;54163;51.386;7.178;2022-07-10T03:28:19;101533.53;;;17.94;60.25
43989;BME280;54163;51.386;7.178;2022-07-10T03:30:46;101530.69;;;17.96;60.35
43989;BME280;54163;51.386;7.178;2022-07-10T03:33:13;101534.78;;;18.01;59.89
43989;BME280;54163;51.386;7.178;2022-07-10T03:35:40;101521.06;;;17.81;60.53
43989;BME280;54163;51.386;7.178;2022-07-10T03:38:07;101526.44;;;17.69;61.14
43989;BME280;54163;51.386;7.178;2022-07-10T03:40:35;101525.47;;;17.70;61.36
43989;BME280;54163;51.386;7.178;2022-07-10T03:43:03;101526.34;;;17.71;61.45
43989;BME280;54163;51.386;7.178;2022-07-10T03:45:29;101528.81;;;17.74;61.19
43989;BME280;54163;51.386;7.178;2022-07-10T03:47:56;101528.09;;;17.83;61.11
43989;BME280;54163;51.386;7.178;2022-07-10T03:50:23;101529.19;;;17.92;60.73
43989;BME280;54163;51.386;7.178;2022-07-10T03:52:50;101531.66;;;17.84;60.86
43989;BME280;54163;51.386;7.178;2022-07-10T03:55:17;101536.22;;;17.83;60.94
43989;BME280;54163;51.386;7.178;2022-07-10T03:57:46;101535.59;;;17.80;60.87
43989;BME280;54163;51.386;7.178;2022-07-10T04:00:23;101535.31;;;17.71;61.40
43989;BME280;54163;51.386;7.178;2022-07-10T04:02:54;101536.31;;;17.70;61.37
43989;BME280;54163;51.386;7.178;2022-07-10T04:05:22;101533.59;;;17.70;61.44
43989;BME280;54163;51.386;7.178;2022-07-10T04:07:49;101537.81;;;17.75;61.33
43989;BME280;54163;51.386;7.178;2022-07-10T04:10:16;101537.44;;;17.79;61.24
43989;BME280;54163;51.386;7.178;2022-07-10T04:12:45;101532.75;;;17.81;61.26
43989;BME280;54163;51.386;7.178;2022-07-10T04:15:13;101534.88;;;17.78;61.57
43989;BME280;54163;51.386;7.178;2022-07-10T04:17:40;101538.94;;;17.83;61.50
43989;BME280;54163;51.386;7.178;2022-07-10T04:20:08;101533.38;;;17.85;61.32
43989;BME280;54163;51.386;7.178;2022-07-10T04:22:35;101531.44;;;17.87;61.25
43989;BME280;54163;51.386;7.178;2022-07-10T04:25:03;101535.59;;;17.91;61.10
43989;BME280;54163;51.386;7.178;2022-07-10T04:27:31;101538.06;;;17.83;61.24
43989;BME280;54163;51.386;7.178;2022-07-10T04:29:59;101536.59;;;17.90;61.07
43989;BME280;54163;51.386;7.178;2022-07-10T04:32:26;101541.28;;;17.88;60.92
43989;BME280;54163;51.386;7.178;2022-07-10T04:34:54;101543.25;;;17.97;60.64
43989;BME280;54163;51.386;7.178;2022-07-10T04:37:21;101534.91;;;18.11;60.27
43989;BME280;54163;51.386;7.178;2022-07-10T04:39:48;101536.75;;;18.10;60.01
43989;BME280;54163;51.386;7.178;2022-07-10T04:42:15;101531.47;;;18.20;59.88
43989;BME280;54163;51.386;7.178;2022-07-10T04:44:42;101530.00;;;18.27;59.64
43989;BME280;54163;51.386;7.178;2022-07-10T04:47:11;101531.06;;;18.24;59.85
43989;BME280;54163;51.386;7.178;2022-07-10T04:49:37;101534.31;;;18.30;59.57
43989;BME280;54163;51.386;7.178;2022-07-10T04:52:05;101536.38;;;18.37;59.18
43989;BME280;54163;51.386;7.178;2022-07-10T04:54:33;101536.81;;;18.55;58.73
43989;BME280;54163;51.386;7.178;2022-07-10T04:57:00;101532.19;;;18.44;58.83
43989;BME280;54163;51.386;7.178;2022-07-10T04:59:27;101531.94;;;18.47;58.58
43989;BME280;54163;51.386;7.178;2022-07-10T05:01:53;101539.88;;;18.50;58.55
43989;BME280;54163;51.386;7.178;2022-07-10T05:04:22;101539.13;;;18.59;58.11
43989;BME280;54163;51.386;7.178;2022-07-10T05:06:49;101536.28;;;18.72;57.70
43989;BME280;54163;51.386;7.178;2022-07-10T05:09:15;101537.91;;;18.63;57.92
43989;BME280;54163;51.386;7.178;2022-07-10T05:11:45;101533.97;;;18.67;57.67
43989;BME280;54163;51.386;7.178;2022-07-10T05:14:12;101546.41;;;18.59;57.99
43989;BME280;54163;51.386;7.178;2022-07-10T05:16:39;101544.09;;;18.54;58.01
43989;BME280;54163;51.386;7.178;2022-07-10T05:19:06;101549.03;;;18.60;58.02
43989;BME280;54163;51.386;7.178;2022-07-10T05:21:35;101544.09;;;18.54;58.14
43989;BME280;54163;51.386;7.178;2022-07-10T05:24:02;101545.59;;;18.58;58.11
43989;BME280;54163;51.386;7.178;2022-07-10T05:26:29;101540.59;;;18.74;57.50
43989;BME280;54163;51.386;7.178;2022-07-10T05:28:56;101547.88;;;18.85;57.25
43989;BME280;54163;51.386;7.178;2022-07-10T05:31:23;101557.41;;;18.46;58.50
43989;BME280;54163;51.386;7.178;2022-07-10T05:33:50;101559.25;;;18.46;58.78
43989;BME280;54163;51.386;7.178;2022-07-10T05:36:16;101562.50;;;18.51;58.89
43989;BME280;54163;51.386;7.178;2022-07-10T05:38:45;101557.78;;;18.53;58.71
43989;BME280;54163;51.386;7.178;2022-07-10T05:41:12;101559.53;;;18.65;58.61
43989;BME280;54163;51.386;7.178;2022-07-10T05:43:39;101557.91;;;18.73;58.31
43989;BME280;54163;51.386;7.178;2022-07-10T05:46:07;101564.94;;;18.76;58.07
43989;BME280;54163;51.386;7.178;2022-07-10T05:48:34;101565.78;;;18.88;57.65
43989;BME280;54163;51.386;7.178;2022-07-10T05:51:01;101556.41;;;18.92;57.54
43989;BME280;54163;51.386;7.178;2022-07-10T05:53:28;101558.97;;;19.04;57.35
43989;BME280;54163;51.386;7.178;2022-07-10T05:56:00;101563.75;;;19.12;57.04
43989;BME280;54163;51.386;7.178;2022-07-10T05:58:27;101554.50;;;19.14;56.85
43989;BME280;54163;51.386;7.178;2022-07-10T06:00:55;101557.78;;;19.29;56.46
43989;BME280;54163;51.386;7.178;2022-07-10T06:03:22;101562.25;;;19.30;56.46
43989;BME280;54163;51.386;7.178;2022-07-10T06:05:50;101569.34;;;19.53;56.04
43989;BME280;54163;51.386;7.178;2022-07-10T06:08:17;101554.91;;;19.94;54.90
43989;BME280;54163;51.386;7.178;2022-07-10T06:10:44;101558.88;;;19.90;54.96
43989;BME280;54163;51.386;7.178;2022-07-10T06:13:13;101564.78;;;19.74;55.71
43989;BME280;54163;51.386;7.178;2022-07-10T06:15:40;101566.38;;;20.18;54.49
43989;BME280;54163;51.386;7.178;2022-07-10T06:18:06;101563.28;;;19.81;55.49
43989;BME280;54163;51.386;7.178;2022-07-10T06:20:33;101558.69;;;19.82;55.42
43989;BME280;54163;51.386;7.178;2022-07-10T06:23:01;101558.03;;;19.90;55.44
43989;BME280;54163;51.386;7.178;2022-07-10T06:25:28;101558.22;;;19.98;55.14
43989;BME280;54163;51.386;7.178;2022-07-10T06:27:55;101558.94;;;20.00;54.88
43989;BME280;54163;51.386;7.178;2022-07-10T06:30:24;101562.00;;;20.06;54.56
43989;BME280;54163;51.386;7.178;2022-07-10T06:32:51;101560.16;;;20.07;54.48
43989;BME280;54163;51.386;7.178;2022-07-10T06:35:17;101552.09;;;20.05;54.08
43989;BME280;54163;51.386;7.178;2022-07-10T06:37:45;101564.47;;;20.09;53.66
43989;BME280;54163;51.386;7.178;2022-07-10T06:40:12;101556.56;;;20.06;53.40
43989;BME280;54163;51.386;7.178;2022-07-10T06:42:40;101563.53;;;19.99;53.75
43989;BME280;54163;51.386;7.178;2022-07-10T06:45:10;101562.28;;;19.82;53.98
43989;BME280;54163;51.386;7.178;2022-07-10T06:47:39;101569.44;;;19.63;54.37
43989;BME280;54163;51.386;7.178;2022-07-10T06:50:26;101563.69;;;19.34;54.04
43989;BME280;54163;51.386;7.178;2022-07-10T06:52:55;101566.56;;;19.32;54.41
43989;BME280;54163;51.386;7.178;2022-07-10T06:55:23;101563.69;;;19.34;54.51
43989;BME280;54163;51.386;7.178;2022-07-10T06:57:49;101563.22;;;19.40;54.47
43989;BME280;54163;51.386;7.178;2022-07-10T07:00:17;101565.94;;;19.40;54.66
43989;BME280;54163;51.386;7.178;2022-07-10T07:02:45;101569.75;;;19.38;54.70
43989;BME280;54163;51.386;7.178;2022-07-10T07:05:12;101566.66;;;19.31;54.95
43989;BME280;54163;51.386;7.178;2022-07-10T07:07:39;101565.94;;;19.40;54.72
43989;BME280;54163;51.386;7.178;2022-07-10T07:10:07;101563.09;;;19.42;54.66
43989;BME280;54163;51.386;7.178;2022-07-10T07:12:35;101571.97;;;19.44;54.43
43989;BME280;54163;51.386;7.178;2022-07-10T07:15:02;101551.53;;;19.49;54.31
43989;BME280;54163;51.386;7.178;2022-07-10T07:17:29;101548.91;;;19.59;54.40
43989;BME280;54163;51.386;7.178;2022-07-10T07:20:03;101560.41;;;19.62;54.07
43989;BME280;54163;51.386;7.178;2022-07-10T07:22:47;101566.59;;;19.64;53.69
43989;BME280;54163;51.386;7.178;2022-07-10T07:25:32;101571.63;;;19.69;53.57
43989;BME280;54163;51.386;7.178;2022-07-10T07:27:59;101564.44;;;19.68;53.54
43989;BME280;54163;51.386;7.178;2022-07-10T07:30:27;101580.22;;;19.64;53.67
43989;BME280;54163;51.386;7.178;2022-07-10T07:32:53;101574.78;;;19.53;53.73
43989;BME280;54163;51.386;7.178;2022-07-10T07:35:22;101577.59;;;19.63;53.64
43989;BME280;54163;51.386;7.178;2022-07-10T07:37:50;101575.03;;;19.61;53.49
43989;BME280;54163;51.386;7.178;2022-07-10T07:40:19;101585.38;;;19.67;53.71
43989;BME280;54163;51.386;7.178;2022-07-10T07:42:48;101579.06;;;19.67;53.68
43989;BME280;54163;51.386;7.178;2022-07-10T07:45:16;101587.94;;;19.80;53.49
43989;BME280;54163;51.386;7.178;2022-07-10T07:47:44;101587.78;;;19.81;53.40
43989;BME280;54163;51.386;7.178;2022-07-10T07:50:12;101591.81;;;19.66;54.35
43989;BME280;54163;51.386;7.178;2022-07-10T07:52:40;101587.53;;;19.53;54.95
43989;BME280;54163;51.386;7.178;2022-07-10T07:55:08;101583.09;;;19.52;55.20
43989;BME280;54163;51.386;7.178;2022-07-10T07:57:35;101589.78;;;19.48;55.73
43989;BME280;54163;51.386;7.178;2022-07-10T08:00:04;101581.47;;;19.49;55.65
43989;BME280;54163;51.386;7.178;2022-07-10T08:02:37;101586.53;;;19.54;55.64
43989;BME280;54163;51.386;7.178;2022-07-10T08:05:06;101589.88;;;19.57;55.53
43989;BME280;54163;51.386;7.178;2022-07-10T08:07:35;101599.13;;;19.66;55.41
43989;BME280;54163;51.386;7.178;2022-07-10T08:10:05;101589.09;;;19.66;55.79
43989;BME280;54163;51.386;7.178;2022-07-10T08:12:34;101596.66;;;19.63;55.83
43989;BME280;54163;51.386;7.178;2022-07-10T08:15:01;101584.78;;;19.64;55.50
43989;BME280;54163;51.386;7.178;2022-07-10T08:17:28;101597.06;;;19.58;56.05
43989;BME280;54163;51.386;7.178;2022-07-10T08:19:55;101588.19;;;19.45;56.54
43989;BME280;54163;51.386;7.178;2022-07-10T08:22:22;101591.13;;;19.53;56.44
43989;BME280;54163;51.386;7.178;2022-07-10T08:24:49;101586.41;;;19.55;56.31
43989;BME280;54163;51.386;7.178;2022-07-10T08:27:17;101583.63;;;19.46;56.82
43989;BME280;54163;51.386;7.178;2022-07-10T08:29:44;101580.69;;;19.26;58.00
43989;BME280;54163;51.386;7.178;2022-07-10T08:32:11;101585.09;;;19.27;58.47
43989;BME280;54163;51.386;7.178;2022-07-10T08:34:39;101582.53;;;19.26;58.74
43989;BME280;54163;51.386;7.178;2022-07-10T08:37:06;101581.56;;;19.27;59.03
43989;BME280;54163;51.386;7.178;2022-07-10T08:39:33;101579.41;;;19.30;59.44
43989;BME280;54163;51.386;7.178;2022-07-10T08:42:00;101578.59;;;19.19;61.20
43989;BME280;54163;51.386;7.178;2022-07-10T08:44:30;101581.41;;;19.40;60.64
43989;BME280;54163;51.386;7.178;2022-07-10T08:46:57;101586.88;;;19.40;60.91
43989;BME280;54163;51.386;7.178;2022-07-10T08:49:27;101584.34;;;19.37;61.79
43989;BME280;54163;51.386;7.178;2022-07-10T08:51:57;101590.53;;;19.27;61.89
43989;BME280;54163;51.386;7.178;2022-07-10T08:54:25;101585.00;;;19.29;61.59
43989;BME280;54163;51.386;7.178;2022-07-10T08:56:53;101581.63;;;19.48;61.19
43989;BME280;54163;51.386;7.178;2022-07-10T08:59:22;101576.91;;;19.50;61.46
43989;BME280;54163;51.386;7.178;2022-07-10T09:01:51;101580.91;;;19.46;61.86
43989;BME280;54163;51.386;7.178;2022-07-10T09:04:20;101578.50;;;19.52;61.78
43989;BME280;54163;51.386;7.178;2022-07-10T09:06:47;101575.41;;;19.57;61.25
43989;BME280;54163;51.386;7.178;2022-07-10T09:09:14;101574.78;;;19.53;62.85
43989;BME280;54163;51.386;7.178;2022-07-10T09:11:41;101575.28;;;19.58;61.86
43989;BME280;54163;51.386;7.178;2022-07-10T09:14:10;101575.50;;;19.87;61.24
43989;BME280;54163;51.386;7.178;2022-07-10T09:16:39;101573.53;;;19.89;61.32
43989;BME280;54163;51.386;7.178;2022-07-10T09:19:18;101570.97;;;19.97;60.96
43989;BME280;54163;51.386;7.178;2022-07-10T09:21:47;101572.72;;;19.98;61.35
43989;BME280;54163;51.386;7.178;2022-07-10T09:24:15;101568.94;;;20.10;61.19
43989;BME280;54163;51.386;7.178;2022-07-10T09:26:57;101570.72;;;20.42;60.41
43989;BME280;54163;51.386;7.178;2022-07-10T09:29:26;101574.47;;;20.50;60.57
43989;BME280;54163;51.386;7.178;2022-07-10T09:31:54;101579.81;;;20.61;60.65
43989;BME280;54163;51.386;7.178;2022-07-10T09:34:36;101576.75;;;20.75;60.10
43989;BME280;54163;51.386;7.178;2022-07-10T09:37:24;101591.03;;;20.98;59.59
43989;BME280;54163;51.386;7.178;2022-07-10T09:39:55;101578.41;;;21.07;59.43
43989;BME280;54163;51.386;7.178;2022-07-10T09:42:30;101576.84;;;21.04;59.43
43989;BME280;54163;51.386;7.178;2022-07-10T09:45:17;101574.97;;;21.05;59.36
43989;BME280;54163;51.386;7.178;2022-07-10T09:47:53;101567.78;;;21.04;59.57
43989;BME280;54163;51.386;7.178;2022-07-10T09:50:25;101569.63;;;20.93;59.63
43989;BME280;54163;51.386;7.178;2022-07-10T09:52:54;101563.53;;;21.11;59.39
43989;BME280;54163;51.386;7.178;2022-07-10T09:55:23;101565.69;;;21.36;58.87
43989;BME280;54163;51.386;7.178;2022-07-10T09:57:56;101572.59;;;21.30;58.58
43989;BME280;54163;51.386;7.178;2022-07-10T10:00:26;101567.69;;;21.15;58.62
43989;BME280;54163;51.386;7.178;2022-07-10T10:02:55;101568.19;;;20.99;59.10
43989;BME280;54163;51.386;7.178;2022-07-10T10:05:32;101566.38;;;20.69;60.07
43989;BME280;54163;51.386;7.178;2022-07-10T10:08:04;101555.53;;;20.49;61.04
43989;BME280;54163;51.386;7.178;2022-07-10T10:10:34;101553.78;;;20.38;61.18
43989;BME280;54163;51.386;7.178;2022-07-10T10:13:03;101548.88;;;20.32;61.49
43989;BME280;54163;51.386;7.178;2022-07-10T10:15:35;101549.50;;;20.45;60.95
43989;BME280;54163;51.386;7.178;2022-07-10T10:18:05;101548.09;;;20.51;60.82
43989;BME280;54163;51.386;7.178;2022-07-10T10:20:34;101543.22;;;20.54;60.74
43989;BME280;54163;51.386;7.178;2022-07-10T10:23:04;101540.84;;;20.80;60.13
43989;BME280;54163;51.386;7.178;2022-07-10T10:25:32;101543.91;;;20.86;59.98
43989;BME280;54163;51.386;7.178;2022-07-10T10:28:01;101537.31;;;20.89;60.28
43989;BME280;54163;51.386;7.178;2022-07-10T10:30:29;101546.06;;;20.92;60.43
43989;BME280;54163;51.386;7.178;2022-07-10T10:32:57;101544.19;;;20.93;60.20
43989;BME280;54163;51.386;7.178;2022-07-10T10:35:48;101541.34;;;20.95;60.21
43989;BME280;54163;51.386;7.178;2022-07-10T10:38:15;101544.38;;;21.01;60.09
43989;BME280;54163;51.386;7.178;2022-07-10T10:40:42;101539.78;;;20.92;60.17
43989;BME280;54163;51.386;7.178;2022-07-10T10:43:17;101542.91;;;20.87;59.91
43989;BME280;54163;51.386;7.178;2022-07-10T10:45:45;101539.44;;;20.76;60.05
43989;BME280;54163;51.386;7.178;2022-07-10T10:48:13;101537.38;;;20.68;60.31
43989;BME280;54163;51.386;7.178;2022-07-10T10:50:42;101533.97;;;20.76;60.00
43989;BME280;54163;51.386;7.178;2022-07-10T10:53:14;101538.53;;;20.66;61.39
43989;BME280;54163;51.386;7.178;2022-07-10T10:56:21;101534.22;;;20.63;60.97
43989;BME280;54163;51.386;7.178;2022-07-10T10:58:49;101534.97;;;20.75;60.50
43989;BME280;54163;51.386;7.178;2022-07-10T11:01:27;101530.97;;;20.79;60.46
43989;BME280;54163;51.386;7.178;2022-07-10T11:04:16;101527.38;;;20.78;60.89
43989;BME280;54163;51.386;7.178;2022-07-10T11:06:46;101534.31;;;21.02;60.13
43989;BME280;54163;51.386;7.178;2022-07-10T11:09:26;101524.19;;;21.13;59.50
43989;BME280;54163;51.386;7.178;2022-07-10T11:12:01;101521.47;;;21.23;59.73
43989;BME280;54163;51.386;7.178;2022-07-10T11:14:31;101525.78;;;21.35;59.21
43989;BME280;54163;51.386;7.178;2022-07-10T11:16:59;101530.94;;;21.28;59.21
43989;BME280;54163;51.386;7.178;2022-07-10T11:19:27;101519.03;;;21.29;59.11
43989;BME280;54163;51.386;7.178;2022-07-10T11:22:35;101525.47;;;21.09;59.95
43989;BME280;54163;51.386;7.178;2022-07-10T11:25:22;101523.47;;;21.21;59.54
43989;BME280;54163;51.386;7.178;2022-07-10T11:28:09;101521.91;;;21.28;60.21
43989;BME280;54163;51.386;7.178;2022-07-10T11:30:46;101525.03;;;21.33;60.62
43989;BME280;54163;51.386;7.178;2022-07-10T11:33:14;101516.88;;;21.14;62.17
43989;BME280;54163;51.386;7.178;2022-07-10T11:35:44;101518.28;;;21.18;62.92
43989;BME280;54163;51.386;7.178;2022-07-10T11:38:12;101522.47;;;21.60;61.50
43989;BME280;54163;51.386;7.178;2022-07-10T11:40:39;101512.53;;;21.78;61.73
43989;BME280;54163;51.386;7.178;2022-07-10T11:43:06;101505.03;;;22.00;60.85
43989;BME280;54163;51.386;7.178;2022-07-10T11:45:39;101508.38;;;22.30;60.37
43989;BME280;54163;51.386;7.178;2022-07-10T11:48:16;101504.31;;;22.44;59.54
43989;BME280;54163;51.386;7.178;2022-07-10T11:50:43;101510.03;;;22.14;60.42
43989;BME280;54163;51.386;7.178;2022-07-10T11:53:11;101511.78;;;22.05;60.47
43989;BME280;54163;51.386;7.178;2022-07-10T11:55:39;101512.84;;;21.66;61.71
43989;BME280;54163;51.386;7.178;2022-07-10T11:58:14;101509.81;;;21.50;62.30
43989;BME280;54163;51.386;7.178;2022-07-10T12:00:41;101505.53;;;21.37;62.60
43989;BME280;54163;51.386;7.178;2022-07-10T12:03:18;101507.25;;;21.19;63.41
43989;BME280;54163;51.386;7.178;2022-07-10T12:05:47;101515.22;;;21.02;64.32
43989;BME280;54163;51.386;7.178;2022-07-10T12:08:15;101517.19;;;20.80;66.79
43989;BME280;54163;51.386;7.178;2022-07-10T12:10:42;101514.28;;;20.63;66.57
43989;BME280;54163;51.386;7.178;2022-07-10T12:13:10;101509.06;;;20.50;68.44
43989;BME280;54163;51.386;7.178;2022-07-10T12:15:39;101510.38;;;20.25;69.74
43989;BME280;54163;51.386;7.178;2022-07-10T12:18:07;101515.69;;;20.27;70.29
43989;BME280;54163;51.386;7.178;2022-07-10T12:20:37;101512.44;;;20.33;70.95
43989;BME280;54163;51.386;7.178;2022-07-10T12:23:08;101515.84;;;20.65;69.76
43989;BME280;54163;51.386;7.178;2022-07-10T12:25:35;101508.72;;;20.83;69.34
43989;BME280;54163;51.386;7.178;2022-07-10T12:28:03;101501.97;;;20.78;70.13
43989;BME280;54163;51.386;7.178;2022-07-10T12:30:38;101505.94;;;20.64;70.14
43989;BME280;54163;51.386;7.178;2022-07-10T12:33:10;101513.53;;;20.51;70.88
43989;BME280;54163;51.386;7.178;2022-07-10T12:35:48;101511.34;;;20.45;70.96
43989;BME280;54163;51.386;7.178;2022-07-10T12:38:17;101505.06;;;20.54;71.05
43989;BME280;54163;51.386;7.178;2022-07-10T12:40:44;101513.94;;;21.06;69.85
43989;BME280;54163;51.386;7.178;2022-07-10T12:43:12;101505.22;;;21.40;68.81
43989;BME280;54163;51.386;7.178;2022-07-10T12:45:39;101501.72;;;21.86;67.80
43989;BME280;54163;51.386;7.178;2022-07-10T12:48:06;101502.91;;;22.30;66.68
43989;BME280;54163;51.386;7.178;2022-07-10T12:50:33;101502.63;;;22.70;66.07
43989;BME280;54163;51.386;7.178;2022-07-10T12:53:09;101499.13;;;22.78;65.64
43989;BME280;54163;51.386;7.178;2022-07-10T12:55:37;101506.53;;;22.58;65.18
43989;BME280;54163;51.386;7.178;2022-07-10T12:58:08;101496.81;;;22.46;65.58
43989;BME280;54163;51.386;7.178;2022-07-10T13:00:44;101499.19;;;22.31;65.97